createdAt,value
2017-08-15T00:00:54.278Z,3.90
2017-08-15T00:06:23.274Z,3.17
2017-08-15T00:11:51.478Z,3.93
2017-08-15T00:17:19.674Z,4.23
2017-08-15T00:22:48.670Z,3.50
2017-08-15T00:28:16.861Z,3.80
2017-08-15T00:33:45.049Z,3.80
2017-08-15T00:39:13.233Z,3.67
2017-08-15T00:44:42.187Z,3.67
2017-08-15T00:50:10.384Z,3.57
2017-08-15T00:55:38.573Z,19.53
2017-08-15T01:01:06.802Z,15.47
2017-08-15T01:06:35.028Z,10.20
2017-08-15T01:12:03.205Z,5.73
2017-08-15T01:17:32.158Z,3.60
2017-08-15T01:23:00.362Z,3.70
2017-08-15T01:28:28.575Z,3.27
2017-08-15T01:33:56.769Z,3.07
2017-08-15T01:39:24.975Z,3.77
2017-08-15T01:44:53.172Z,3.13
2017-08-15T01:50:22.117Z,3.70
2017-08-15T01:55:50.295Z,4.03
2017-08-15T02:01:18.440Z,3.70
2017-08-15T02:06:47.044Z,4.20
2017-08-15T02:12:15.211Z,3.07
2017-08-15T02:17:43.351Z,4.13
2017-08-15T02:23:11.506Z,3.70
2017-08-15T02:28:40.425Z,3.93
2017-08-15T02:34:08.559Z,3.57
2017-08-15T02:39:36.711Z,3.40
2017-08-15T02:45:05.637Z,3.10
2017-08-15T02:50:33.795Z,3.70
2017-08-15T02:56:01.957Z,3.50
2017-08-15T03:01:30.103Z,3.67
2017-08-15T03:06:58.283Z,3.47
2017-08-15T03:12:26.450Z,3.17
2017-08-15T03:17:54.588Z,4.23
2017-08-15T03:23:22.759Z,3.40
2017-08-15T03:28:50.924Z,3.90
2017-08-15T03:34:19.071Z,3.57
2017-08-15T03:39:47.221Z,3.80
2017-08-15T03:45:15.377Z,3.50
2017-08-15T03:50:43.529Z,3.73
2017-08-15T03:56:11.668Z,3.70
2017-08-15T04:01:39.822Z,3.70
2017-08-15T04:07:07.964Z,3.83
2017-08-15T04:12:36.111Z,3.73
2017-08-15T04:18:04.324Z,3.37
2017-08-15T04:23:32.477Z,3.27
2017-08-15T04:29:00.610Z,3.80
2017-08-15T04:34:28.751Z,3.27
2017-08-15T04:39:56.900Z,3.43
2017-08-15T04:45:25.058Z,3.47
2017-08-15T04:50:53.245Z,3.80
2017-08-15T04:56:21.388Z,3.50
2017-08-15T05:01:49.573Z,3.80
2017-08-15T05:07:17.730Z,3.03
2017-08-15T05:12:45.916Z,4.00
2017-08-15T05:18:14.835Z,5.17
2017-08-15T05:23:43.617Z,3.30
2017-08-15T05:29:11.764Z,3.50
2017-08-15T05:34:39.914Z,3.57
2017-08-15T05:40:08.066Z,3.40
2017-08-15T05:45:37.219Z,3.10
2017-08-15T05:51:05.376Z,2.73
2017-08-15T05:56:33.515Z,2.70
2017-08-15T06:02:01.664Z,7.50
2017-08-15T06:07:29.807Z,5.80
2017-08-15T06:12:57.964Z,3.13
2017-08-15T06:18:26.127Z,3.00
2017-08-15T06:23:54.351Z,3.40
2017-08-15T06:29:23.298Z,2.30
2017-08-15T06:34:51.457Z,2.43
2017-08-15T06:40:19.608Z,2.77
2017-08-15T06:45:47.755Z,2.00
2017-08-15T06:51:15.898Z,2.13
2017-08-15T06:56:44.049Z,2.63
2017-08-15T07:02:12.199Z,2.27
2017-08-15T07:07:40.330Z,2.50
2017-08-15T07:13:08.483Z,2.60
2017-08-15T07:18:37.481Z,2.40
2017-08-15T07:24:05.622Z,2.30
2017-08-15T07:29:33.783Z,2.50
2017-08-15T07:35:01.932Z,3.50
2017-08-15T07:40:30.076Z,2.20
2017-08-15T07:45:58.982Z,2.60
2017-08-15T07:51:27.128Z,2.70
2017-08-15T07:56:55.300Z,2.73
2017-08-15T08:02:23.458Z,2.53
2017-08-15T08:07:51.617Z,2.50
2017-08-15T08:13:19.783Z,6.37
2017-08-15T08:18:47.932Z,2.87
2017-08-15T08:24:16.081Z,2.60
2017-08-15T08:29:44.216Z,2.40
2017-08-15T08:35:12.348Z,2.47
2017-08-15T08:40:40.830Z,2.37
2017-08-15T08:46:09.753Z,2.90
2017-08-15T08:51:37.896Z,4.67
2017-08-15T08:57:06.030Z,2.23
2017-08-15T09:02:34.181Z,2.40
2017-08-15T09:08:02.314Z,2.60
2017-08-15T09:13:30.461Z,2.70
2017-08-15T09:18:58.591Z,2.73
2017-08-15T09:24:26.736Z,2.40
2017-08-15T09:29:54.941Z,2.80
2017-08-15T09:35:23.112Z,2.10
2017-08-15T09:40:52.105Z,2.00
2017-08-15T09:46:20.845Z,2.37
2017-08-15T09:51:49.035Z,2.20
2017-08-15T09:57:17.939Z,2.33
2017-08-15T10:02:46.088Z,1.80
2017-08-15T10:08:15.005Z,2.13
2017-08-15T10:13:43.145Z,2.07
2017-08-15T10:19:11.287Z,2.20
2017-08-15T10:24:39.439Z,2.10
2017-08-15T10:30:08.353Z,2.87
2017-08-15T10:35:36.515Z,1.97
2017-08-15T10:41:04.651Z,2.10
2017-08-15T10:46:32.829Z,1.90
2017-08-15T10:52:00.989Z,1.93
2017-08-15T10:57:29.128Z,1.90
2017-08-15T11:02:57.267Z,1.57
2017-08-15T11:08:25.424Z,1.90
2017-08-15T11:13:53.563Z,1.50
2017-08-15T11:19:22.486Z,1.77
2017-08-15T11:24:51.393Z,2.00
2017-08-15T11:30:19.557Z,1.90
2017-08-15T11:35:48.517Z,2.40
2017-08-15T11:41:16.675Z,2.20
2017-08-15T11:46:44.809Z,1.93
2017-08-15T11:52:12.960Z,2.17
2017-08-15T11:57:41.102Z,2.17
2017-08-15T12:03:09.239Z,2.30
2017-08-15T12:08:38.143Z,2.13
2017-08-15T12:14:06.304Z,2.00
2017-08-15T12:19:34.442Z,1.97
2017-08-15T12:25:02.578Z,1.93
2017-08-15T12:30:31.516Z,2.30
2017-08-15T12:35:59.668Z,2.40
2017-08-15T12:41:27.891Z,2.20
2017-08-15T12:46:56.041Z,2.17
2017-08-15T12:52:24.966Z,1.93
2017-08-15T12:57:53.126Z,2.40
2017-08-15T13:03:21.280Z,2.00
2017-08-15T13:08:49.445Z,2.80
2017-08-15T13:14:17.588Z,2.03
2017-08-15T13:19:45.738Z,2.10
2017-08-15T13:25:13.877Z,1.90
2017-08-15T13:30:42.027Z,2.00
2017-08-15T13:36:10.163Z,2.20
2017-08-15T13:41:39.066Z,2.00
2017-08-15T13:47:07.202Z,2.27
2017-08-15T13:52:36.106Z,2.10
2017-08-15T13:58:04.259Z,2.33
2017-08-15T14:03:32.404Z,2.00
2017-08-15T14:09:00.557Z,1.90
2017-08-15T14:14:29.473Z,2.00
2017-08-15T14:19:57.631Z,2.00
2017-08-15T14:25:25.781Z,2.10
2017-08-15T14:30:53.932Z,2.23
2017-08-15T14:36:22.088Z,2.20
2017-08-15T14:41:50.252Z,1.87
2017-08-15T14:47:18.405Z,1.53
2017-08-15T14:52:46.545Z,1.90
2017-08-15T14:58:14.707Z,1.70
2017-08-15T15:03:43.712Z,1.80
2017-08-15T15:09:11.877Z,2.37
2017-08-15T15:14:40.032Z,5.47
2017-08-15T15:20:08.211Z,2.10
2017-08-15T15:25:36.434Z,2.00
2017-08-15T15:31:04.580Z,2.07
2017-08-15T15:36:32.734Z,2.20
2017-08-15T15:42:00.897Z,2.03
2017-08-15T15:47:29.048Z,2.27
2017-08-15T15:52:57.191Z,2.30
2017-08-15T15:58:25.375Z,1.90
2017-08-15T16:03:54.547Z,2.37
2017-08-15T16:09:22.691Z,1.60
2017-08-15T16:14:50.912Z,2.30
2017-08-15T16:20:19.892Z,1.80
2017-08-15T16:25:48.050Z,2.20
2017-08-15T16:31:16.192Z,2.60
2017-08-15T16:36:44.428Z,2.13
2017-08-15T16:42:12.583Z,1.97
2017-08-15T16:47:40.741Z,2.20
2017-08-15T16:53:08.911Z,2.10
2017-08-15T16:58:37.138Z,2.60
2017-08-15T17:04:05.328Z,2.50
2017-08-15T17:09:33.501Z,2.53
2017-08-15T17:15:01.650Z,2.87
2017-08-15T17:20:29.800Z,2.60
2017-08-15T17:25:57.952Z,2.00
2017-08-15T17:31:26.095Z,2.50
2017-08-15T17:36:54.276Z,2.80
2017-08-15T17:42:22.476Z,2.80
2017-08-15T17:47:50.611Z,2.70
2017-08-15T17:53:18.803Z,2.50
2017-08-15T17:58:47.721Z,2.90
2017-08-15T18:04:15.921Z,2.50
2017-08-15T18:09:45.959Z,2.60
2017-08-15T18:15:14.112Z,3.40
2017-08-15T18:20:42.246Z,3.57
2017-08-15T18:26:11.168Z,3.10
2017-08-15T18:31:39.316Z,4.70
2017-08-15T18:37:07.467Z,3.70
2017-08-15T18:42:35.620Z,3.60
2017-08-15T18:48:03.786Z,3.20
2017-08-15T18:53:35.458Z,5.03
2017-08-15T18:59:03.611Z,3.50
2017-08-15T19:04:32.034Z,3.23
2017-08-15T19:10:00.264Z,3.70
2017-08-15T19:15:28.430Z,3.60
2017-08-15T19:20:56.623Z,3.57
2017-08-15T19:26:24.827Z,3.57
2017-08-15T19:31:53.077Z,3.50
2017-08-15T19:37:21.244Z,3.87
2017-08-15T19:42:49.417Z,3.10
2017-08-15T19:48:18.356Z,3.40
2017-08-15T19:53:46.504Z,3.90
2017-08-15T19:59:14.648Z,3.60
2017-08-15T20:04:42.794Z,4.00
2017-08-15T20:10:16.736Z,4.33
2017-08-15T20:15:45.832Z,2.70
2017-08-15T20:21:14.143Z,4.10
2017-08-15T20:26:42.293Z,4.53
2017-08-15T20:32:10.455Z,3.03
2017-08-15T20:37:38.651Z,3.60
2017-08-15T20:43:07.929Z,3.43
2017-08-15T20:48:36.087Z,4.20
2017-08-15T20:54:04.243Z,3.60
2017-08-15T20:59:32.387Z,3.50
2017-08-15T21:05:00.557Z,3.70
2017-08-15T21:10:28.711Z,3.17
2017-08-15T21:15:56.856Z,3.50
2017-08-15T21:21:25.022Z,4.43
2017-08-15T21:26:53.193Z,3.70
2017-08-15T21:32:21.343Z,4.30
2017-08-15T21:37:49.588Z,4.10
2017-08-15T21:43:17.773Z,3.60
2017-08-15T21:48:45.940Z,3.97
2017-08-15T21:54:14.079Z,3.73
2017-08-15T21:59:42.233Z,3.37
2017-08-15T22:05:10.385Z,4.57
2017-08-15T22:10:38.901Z,4.03
2017-08-15T22:16:07.068Z,4.13
2017-08-15T22:21:36.735Z,4.40
2017-08-15T22:27:04.904Z,4.17
2017-08-15T22:32:33.224Z,6.07
2017-08-15T22:38:01.392Z,3.93
2017-08-15T22:43:29.557Z,3.90
2017-08-15T22:49:00.124Z,4.40
2017-08-15T22:54:28.274Z,5.10
2017-08-15T22:59:56.424Z,4.20
2017-08-15T23:05:25.364Z,4.70
2017-08-15T23:10:53.959Z,5.60
2017-08-15T23:16:22.893Z,6.87
2017-08-15T23:21:51.031Z,6.77
2017-08-15T23:27:19.206Z,6.60
2017-08-15T23:32:47.445Z,7.30
2017-08-15T23:38:15.608Z,8.37
2017-08-15T23:43:43.851Z,7.50
2017-08-15T23:49:12.003Z,3.10
2017-08-15T23:54:40.172Z,1.77
